Time;durP1;ratioP1;P1;durP2;ratioP2;P2;SDS_P1;SDS_P2;PMS_P1;PMS_P2;Temp;Humidity;BMP_temperature;BMP_pressure;BME280_temperature;BME280_humidity;BME280_pressure;Samples;Min_cycle;Max_cycle;Signal;HPM_P1;HPM_P2
2022/06/22 00:02:34;;;;;;;15.27;10.32;;;19.40;99.90;;;;;;5066509;28;20045;-88
2022/06/22 00:05:29;;;;;;;14.32;10.18;;;19.30;99.90;;;;;;5072949;28;20155;-87
2022/06/22 00:08:21;;;;;;;12.48;11.20;;;19.10;99.90;;;;;;5057524;28;20049;-89
2022/06/22 00:11:14;;;;;;;17.33;11.07;;;18.90;99.90;;;;;;5065025;28;20371;-89
2022/06/22 00:14:02;;;;;;;15.43;11.15;;;18.80;99.90;;;;;;5059769;28;20044;-89
2022/06/22 00:16:55;;;;;;;13.05;11.63;;;18.70;99.90;;;;;;5060114;28;20414;-88
2022/06/22 00:19:43;;;;;;;18.10;12.43;;;18.60;99.90;;;;;;5071056;28;20127;-89
2022/06/22 00:22:53;;;;;;;14.68;12.93;;;18.60;99.90;;;;;;5074879;28;20049;-89
2022/06/22 00:25:41;;;;;;;14.18;12.30;;;18.50;99.90;;;;;;5048416;28;20064;-88
2022/06/22 00:28:50;;;;;;;18.77;13.50;;;18.40;99.90;;;;;;5068315;28;20134;-86
2022/06/22 00:32:04;;;;;;;15.25;12.93;;;18.40;99.90;;;;;;5077021;28;20044;-87
2022/06/22 00:34:51;;;;;;;14.85;12.23;;;18.40;99.90;;;;;;5057367;28;20040;-86
2022/06/22 00:37:38;;;;;;;18.23;13.52;;;18.30;99.90;;;;;;5071749;28;20074;-88
2022/06/22 00:40:35;;;;;;;18.13;13.13;;;18.20;99.90;;;;;;5074897;28;20416;-87
2022/06/22 00:43:32;;;;;;;14.02;12.52;;;18.30;99.90;;;;;;5073845;28;20044;-86
2022/06/22 00:46:22;;;;;;;14.05;11.75;;;18.40;99.90;;;;;;5075345;28;20113;-87
2022/06/22 00:49:18;;;;;;;15.25;12.50;;;18.50;99.90;;;;;;5076844;28;20036;-87
2022/06/22 00:52:08;;;;;;;15.18;12.02;;;18.60;99.90;;;;;;5069449;28;20063;-88
2022/06/22 00:54:56;;;;;;;17.73;12.55;;;18.50;99.90;;;;;;5074519;28;20414;-89
2022/06/22 00:57:53;;;;;;;13.27;11.48;;;18.60;99.90;;;;;;5075679;28;20048;-88
2022/06/22 01:00:53;;;;;;;14.77;11.80;;;18.70;99.90;;;;;;5059492;28;20070;-88
2022/06/22 01:03:54;;;;;;;12.52;11.27;;;18.80;99.90;;;;;;5075571;28;20151;-88
2022/06/22 01:07:07;;;;;;;16.13;10.95;;;18.90;99.90;;;;;;5069554;28;20041;-88
2022/06/22 01:10:11;;;;;;;17.05;10.57;;;19.00;99.90;;;;;;5070104;28;20446;-88
2022/06/22 01:13:10;;;;;;;11.80;10.38;;;19.00;99.90;;;;;;5060724;28;20064;-88
2022/06/22 01:16:05;;;;;;;13.05;10.73;;;19.10;99.90;;;;;;5074443;28;20118;-86
2022/06/22 01:19:11;;;;;;;15.90;12.00;;;19.00;99.90;;;;;;5066432;28;20388;-88
2022/06/22 01:22:20;;;;;;;14.30;11.95;;;18.90;99.90;;;;;;5069029;28;20033;-88
2022/06/22 01:25:44;;;;;;;21.38;11.90;;;18.90;99.90;;;;;;5048988;28;20056;-88
2022/06/22 01:28:32;;;;;;;13.07;11.32;;;18.90;99.90;;;;;;5081962;28;20090;-87
2022/06/22 01:31:19;;;;;;;14.90;11.85;;;18.90;99.90;;;;;;5080506;28;20065;-87
2022/06/22 01:34:17;;;;;;;14.80;11.40;;;19.00;99.90;;;;;;5083721;28;20036;-88
2022/06/22 01:37:10;;;;;;;17.00;11.07;;;19.00;99.90;;;;;;5058226;28;20380;-92
2022/06/22 01:40:09;;;;;;;12.50;10.65;;;18.90;99.90;;;;;;5069241;28;20044;-92
2022/06/22 01:43:20;;;;;;;19.05;11.73;;;19.00;99.90;;;;;;5056431;28;20354;-89
2022/06/22 01:46:34;;;;;;;16.40;11.80;;;19.10;99.90;;;;;;5067800;28;20044;-90
2022/06/22 01:49:46;;;;;;;15.20;10.43;;;19.30;99.90;;;;;;5075997;28;20094;-89
2022/06/22 01:53:29;;;;;;;;;;;;;;;;;;;;;
2022/06/22 01:56:40;;;;;;;17.73;14.35;;;19.40;99.90;;;;;;5073644;28;20052;-86
2022/06/22 01:59:47;;;;;;;18.27;16.33;;;19.20;99.90;;;;;;5070446;28;20056;-86
2022/06/22 02:02:53;;;;;;;19.60;15.75;;;19.00;99.90;;;;;;5070128;28;20454;-88
2022/06/22 02:05:59;;;;;;;21.63;19.02;;;18.90;99.90;;;;;;5070424;28;20045;-88
2022/06/22 02:08:48;;;;;;;29.75;21.17;;;18.60;99.90;;;;;;5060996;28;20396;-86
2022/06/22 02:11:43;;;;;;;29.80;22.45;;;18.40;99.90;;;;;;5076842;28;20118;-86
2022/06/22 02:14:31;;;;;;;31.20;22.85;;;18.30;99.90;;;;;;5072962;28;20163;-88
2022/06/22 02:17:23;;;;;;;28.42;25.15;;;18.20;99.90;;;;;;5073994;28;20089;-88
2022/06/22 02:20:33;;;;;;;38.00;25.98;;;18.20;99.90;;;;;;5071013;28;20071;-87
2022/06/22 02:23:29;;;;;;;28.05;24.75;;;18.20;99.90;;;;;;5068341;28;20080;-85
2022/06/22 02:26:35;;;;;;;32.40;25.45;;;18.10;99.90;;;;;;5065287;28;20052;-86
2022/06/22 02:29:31;;;;;;;34.70;26.05;;;18.00;99.90;;;;;;5058296;28;20036;-86
2022/06/22 02:32:33;;;;;;;31.40;27.35;;;18.10;99.90;;;;;;5071363;28;20037;-87
2022/06/22 02:35:42;;;;;;;27.75;24.70;;;18.20;99.90;;;;;;5073761;28;20044;-87
2022/06/22 02:38:29;;;;;;;35.05;27.08;;;18.10;99.90;;;;;;5066186;28;20060;-88
2022/06/22 02:44:45;;;;;;;33.78;26.10;;;18.00;99.90;;;;;;5065644;28;20423;-85
2022/06/22 02:47:48;;;;;;;31.73;24.38;;;18.00;99.90;;;;;;5060308;28;20157;-86
2022/06/22 02:50:54;;;;;;;30.98;25.95;;;18.00;99.90;;;;;;5056586;28;20100;-85
2022/06/22 02:53:42;;;;;;;30.77;25.70;;;18.10;99.90;;;;;;5083122;28;20075;-85
2022/06/22 02:56:34;;;;;;;29.77;25.05;;;18.00;99.90;;;;;;5080699;28;20102;-86
2022/06/22 02:59:21;;;;;;;31.48;27.33;;;18.00;99.90;;;;;;5070925;28;20053;-88
2022/06/22 03:02:09;;;;;;;35.88;28.10;;;17.90;99.90;;;;;;5090382;28;20033;-86
2022/06/22 03:05:05;;;;;;;30.80;25.85;;;18.00;99.90;;;;;;5069527;28;20037;-88
2022/06/22 03:07:56;;;;;;;36.35;28.02;;;17.90;99.90;;;;;;5083838;28;20396;-88
2022/06/22 03:10:51;;;;;;;29.13;25.30;;;17.90;99.90;;;;;;5063267;28;20036;-85
2022/06/22 03:14:13;;;;;;;35.42;27.48;;;17.90;99.90;;;;;;5082594;28;20048;-85
2022/06/22 03:17:14;;;;;;;37.80;26.55;;;17.90;99.90;;;;;;5074120;28;20044;-86
2022/06/22 03:20:07;;;;;;;33.22;27.05;;;17.80;99.90;;;;;;5067970;28;20123;-87
2022/06/22 03:23:13;;;;;;;33.72;26.67;;;17.80;99.90;;;;;;5058731;28;20512;-87
2022/06/22 03:26:04;;;;;;;29.33;25.60;;;17.70;99.90;;;;;;5054979;28;20133;-86
2022/06/22 03:28:58;;;;;;;31.52;25.27;;;17.70;99.90;;;;;;5072289;28;20060;-87
2022/06/22 03:31:55;;;;;;;32.30;26.15;;;17.60;99.90;;;;;;5061092;28;20449;-87
2022/06/22 03:35:06;;;;;;;33.25;24.73;;;17.60;99.90;;;;;;5062528;28;20129;-87
2022/06/22 03:38:34;;;;;;;27.35;22.42;;;17.70;99.90;;;;;;5072870;28;20052;-87
2022/06/22 03:41:30;;;;;;;25.38;21.77;;;17.70;99.90;;;;;;5072504;28;20075;-88
2022/06/22 03:44:29;;;;;;;25.77;22.30;;;17.70;99.90;;;;;;5064831;28;20048;-87
2022/06/22 03:47:23;;;;;;;25.80;22.98;;;17.70;99.90;;;;;;5072654;28;20185;-88
2022/06/22 03:50:10;;;;;;;28.50;22.38;;;17.70;99.90;;;;;;5067039;28;20049;-86
2022/06/22 03:53:09;;;;;;;26.75;23.95;;;17.70;99.90;;;;;;5062887;28;20075;-87
2022/06/22 03:56:07;;;;;;;28.23;25.02;;;17.70;99.90;;;;;;5056837;28;20102;-87
2022/06/22 03:58:54;;;;;;;29.77;23.42;;;17.80;99.90;;;;;;5071986;28;20090;-87
2022/06/22 04:01:42;;;;;;;27.48;23.92;;;17.70;99.90;;;;;;5056149;28;20064;-87
2022/06/22 04:04:30;;;;;;;29.65;24.02;;;17.80;99.90;;;;;;5068618;28;20044;-87
2022/06/22 04:07:18;;;;;;;30.35;24.13;;;17.80;99.90;;;;;;5072534;28;20135;-86
2022/06/22 04:10:16;;;;;;;33.05;28.00;;;17.80;99.90;;;;;;5066358;28;20047;-87
2022/06/22 04:13:15;;;;;;;35.75;30.20;;;17.90;99.90;;;;;;5064562;28;20048;-89
2022/06/22 04:16:16;;;;;;;32.10;28.67;;;17.90;99.90;;;;;;5060451;28;20045;-86
2022/06/22 04:19:16;;;;;;;33.78;27.10;;;18.00;99.90;;;;;;5057709;28;20053;-87
2022/06/22 04:22:27;;;;;;;30.08;26.77;;;18.00;99.90;;;;;;5061488;28;20044;-87
2022/06/22 04:29:26;;;;;;;23.13;19.90;;;17.90;99.90;;;;;;5082501;28;20060;-88
2022/06/22 04:32:13;;;;;;;28.10;22.30;;;18.00;99.90;;;;;;5075499;28;20481;-89
2022/06/22 04:44:14;;;;;;;28.40;21.48;;;18.10;99.90;;;;;;5067391;28;20028;-90
2022/06/22 05:00:06;;;;;;;19.42;17.10;;;18.40;99.90;;;;;;4970459;28;20103;-88
2022/06/22 05:02:59;;;;;;;18.60;16.48;;;18.50;99.90;;;;;;4962790;28;20065;-91
2022/06/22 05:05:47;;;;;;;22.58;16.83;;;18.60;99.90;;;;;;4975298;28;20040;-89
2022/06/22 05:08:43;;;;;;;29.48;18.50;;;18.80;99.90;;;;;;5071473;28;20326;-90
2022/06/22 05:11:41;;;;;;;24.00;15.75;;;19.00;99.90;;;;;;5074154;28;20057;-90
2022/06/22 05:14:33;;;;;;;16.40;13.10;;;19.10;99.90;;;;;;5055178;28;20159;-90
2022/06/22 05:17:34;;;;;;;16.77;13.10;;;19.30;99.90;;;;;;5073213;28;20036;-89
2022/06/22 05:20:37;;;;;;;14.65;11.07;;;19.60;99.90;;;;;;5062058;28;20048;-88
2022/06/22 05:23:27;;;;;;;12.80;11.32;;;19.90;99.90;;;;;;5072975;28;20423;-88
2022/06/22 05:26:20;;;;;;;19.20;11.82;;;20.00;99.90;;;;;;5074076;28;20131;-87
2022/06/22 05:29:26;;;;;;;14.77;13.07;;;20.00;99.90;;;;;;5073938;28;20055;-88
2022/06/22 05:32:23;;;;;;;16.92;12.93;;;19.90;99.90;;;;;;5071842;28;20037;-89
2022/06/22 05:35:17;;;;;;;19.88;12.55;;;19.90;99.90;;;;;;5077004;28;20342;-89
2022/06/22 05:38:09;;;;;;;16.10;12.68;;;19.90;99.90;;;;;;5067287;28;20082;-87
2022/06/22 05:40:59;;;;;;;16.85;13.15;;;19.90;99.90;;;;;;5073740;28;20126;-90
2022/06/22 05:43:49;;;;;;;15.77;12.88;;;19.70;99.90;;;;;;5073835;28;20072;-88
2022/06/22 05:46:37;;;;;;;16.00;12.23;;;19.60;99.90;;;;;;5075701;28;20111;-87
2022/06/22 05:49:44;;;;;;;17.15;11.48;;;19.60;99.90;;;;;;5064711;28;20449;-89
2022/06/22 05:52:46;;;;;;;17.15;11.68;;;19.60;99.90;;;;;;5064988;28;20041;-90
2022/06/22 05:56:22;;;;;;;21.45;12.48;;;19.60;99.90;;;;;;5076344;28;20109;-91
2022/06/22 05:59:28;;;;;;;16.33;12.18;;;19.60;99.90;;;;;;5006190;28;20156;-90
2022/06/22 06:02:44;;;;;;;16.55;13.77;;;19.50;99.90;;;;;;5077839;28;20040;-90
2022/06/22 06:05:45;;;;;;;36.10;17.00;;;19.20;99.90;;;;;;5053693;28;20045;-90
2022/06/22 06:08:54;;;;;;;29.10;19.00;;;18.90;99.90;;;;;;5062664;28;20101;-90
2022/06/22 06:11:55;;;;;;;29.60;19.38;;;18.80;99.90;;;;;;5075245;28;20041;-91
2022/06/22 06:14:50;;;;;;;26.67;21.55;;;18.70;99.90;;;;;;5057811;28;20119;-92
2022/06/22 06:17:51;;;;;;;31.50;22.90;;;18.60;99.90;;;;;;5053743;28;20125;-90
2022/06/22 06:20:47;;;;;;;31.77;24.88;;;18.50;99.90;;;;;;5061908;28;20055;-89
2022/06/22 06:23:43;;;;;;;36.15;26.60;;;18.50;99.90;;;;;;5068546;28;20148;-86
2022/06/22 06:30:40;;;;;;;39.75;25.73;;;18.40;99.90;;;;;;5073972;28;20040;-88
2022/06/22 06:33:36;;;;;;;33.72;24.63;;;18.40;99.90;;;;;;5071683;28;20078;-89
2022/06/22 06:36:30;;;;;;;32.88;24.75;;;18.20;99.90;;;;;;5056758;28;20059;-89
2022/06/22 06:39:29;;;;;;;31.15;26.88;;;18.20;99.90;;;;;;5073193;28;20082;-89
2022/06/22 06:42:37;;;;;;;33.97;27.33;;;18.10;99.90;;;;;;5069785;28;20040;-88
2022/06/22 06:45:27;;;;;;;29.17;23.30;;;18.10;99.90;;;;;;5067165;28;20037;-90
2022/06/22 06:48:20;;;;;;;29.70;25.10;;;18.10;99.90;;;;;;5072611;28;20068;-89
2022/06/22 06:51:13;;;;;;;26.08;23.05;;;18.10;99.90;;;;;;5074599;28;20041;-91
2022/06/22 06:54:15;;;;;;;27.23;21.83;;;18.20;99.90;;;;;;5057443;28;20048;-89
2022/06/22 06:57:17;;;;;;;30.33;22.40;;;18.30;99.90;;;;;;5071861;28;20480;-86
2022/06/22 07:00:11;;;;;;;27.30;22.83;;;18.30;99.90;;;;;;5072896;28;20044;-91
2022/06/22 07:03:04;;;;;;;28.30;22.58;;;18.30;99.90;;;;;;5074049;28;20075;-90
2022/06/22 07:05:53;;;;;;;23.25;20.13;;;18.40;99.90;;;;;;5048102;28;20041;-88
2022/06/22 07:08:57;;;;;;;21.10;18.85;;;18.40;99.90;;;;;;5070918;28;20397;-89
2022/06/22 07:11:51;;;;;;;21.00;16.45;;;18.50;99.90;;;;;;5052508;28;20048;-91
2022/06/22 07:14:41;;;;;;;18.65;15.38;;;18.70;99.90;;;;;;5055592;28;20437;-91
2022/06/22 07:17:32;;;;;;;17.88;14.95;;;18.80;99.90;;;;;;5067156;28;20040;-91
2022/06/22 07:20:33;;;;;;;20.73;14.00;;;19.00;99.90;;;;;;5074916;28;20445;-91
2022/06/22 07:23:39;;;;;;;18.80;13.98;;;19.20;99.90;;;;;;5070850;28;20138;-92
2022/06/22 07:26:49;;;;;;;18.25;12.52;;;19.60;99.90;;;;;;5073637;28;20056;-92
2022/06/22 07:30:10;;;;;;;14.68;12.32;;;20.00;99.90;;;;;;5078112;28;20135;-92
2022/06/22 07:33:11;;;;;;;17.52;12.63;;;20.20;99.90;;;;;;5083203;28;20033;-90
2022/06/22 07:36:04;;;;;;;12.65;10.70;;;20.30;99.90;;;;;;5083265;28;20112;-91
2022/06/22 07:39:01;;;;;;;16.00;9.95;;;20.30;99.90;;;;;;5074414;28;20453;-91
2022/06/22 07:41:50;;;;;;;13.57;10.63;;;20.50;99.90;;;;;;5073085;28;20055;-91
2022/06/22 07:44:38;;;;;;;19.38;11.43;;;20.60;99.90;;;;;;5065059;28;20044;-93
2022/06/22 07:47:57;;;;;;;15.13;9.18;;;20.60;99.90;;;;;;5077901;28;20468;-88
2022/06/22 07:51:11;;;;;;;13.75;10.10;;;20.80;99.90;;;;;;5065266;28;20044;-91
2022/06/22 07:54:45;;;;;;;16.20;9.85;;;21.10;99.90;;;;;;5050612;28;20080;-92
2022/06/22 07:58:06;;;;;;;11.40;9.70;;;21.30;99.90;;;;;;5080893;28;20438;-92
2022/06/22 08:01:30;;;;;;;12.25;9.63;;;21.20;99.90;;;;;;5069052;28;20193;-91
2022/06/22 08:04:46;;;;;;;15.68;10.20;;;21.30;99.90;;;;;;5052729;28;20454;-87
2022/06/22 08:08:06;;;;;;;18.98;11.45;;;21.20;99.90;;;;;;5074962;28;20052;-88
2022/06/22 08:11:07;;;;;;;14.63;10.90;;;21.10;99.90;;;;;;5074845;28;20036;-90
2022/06/22 08:14:45;;;;;;;13.88;11.52;;;21.10;99.90;;;;;;5062677;28;20036;-89
2022/06/22 08:17:53;;;;;;;13.43;10.95;;;21.00;99.90;;;;;;5053160;28;20194;-91
2022/06/22 08:20:45;;;;;;;15.55;11.38;;;21.10;99.90;;;;;;5063923;28;20105;-90
2022/06/22 08:23:35;;;;;;;15.90;12.02;;;21.00;99.90;;;;;;5073480;28;20048;-89
2022/06/22 08:26:27;;;;;;;14.10;10.63;;;21.10;99.90;;;;;;5074518;28;20350;-90
2022/06/22 08:29:18;;;;;;;12.02;10.40;;;21.10;99.90;;;;;;5077115;28;20032;-89
2022/06/22 08:32:23;;;;;;;15.70;11.75;;;21.10;99.90;;;;;;5055052;28;20156;-88
2022/06/22 08:35:19;;;;;;;14.02;10.55;;;21.30;99.90;;;;;;5073852;28;20092;-88
2022/06/22 08:38:21;;;;;;;16.90;11.50;;;21.60;99.90;;;;;;5074546;28;20044;-90
2022/06/22 08:41:29;;;;;;;14.52;11.30;;;21.80;99.90;;;;;;5076044;28;20106;-91
2022/06/22 08:44:32;;;;;;;17.67;11.60;;;21.70;99.90;;;;;;5074984;28;20122;-88
2022/06/22 08:47:19;;;;;;;16.15;12.63;;;21.60;99.90;;;;;;5072249;28;20040;-91
2022/06/22 08:50:29;;;;;;;23.50;14.60;;;21.30;99.90;;;;;;5072086;28;20051;-90
2022/06/22 08:53:53;;;;;;;17.73;15.73;;;20.90;99.90;;;;;;5076729;28;20104;-90
2022/06/22 08:56:49;;;;;;;23.30;14.95;;;20.70;99.90;;;;;;5074234;28;20045;-90
2022/06/22 08:59:39;;;;;;;20.30;14.77;;;20.60;99.90;;;;;;5076270;28;20055;-90
2022/06/22 09:02:32;;;;;;;17.98;15.13;;;20.30;99.90;;;;;;5092892;28;20094;-89
2022/06/22 09:05:51;;;;;;;25.10;16.40;;;20.20;99.90;;;;;;5072756;28;20051;-88
2022/06/22 09:09:09;;;;;;;20.40;16.75;;;20.10;99.90;;;;;;5088527;28;20115;-90
2022/06/22 09:12:25;;;;;;;21.02;15.55;;;20.20;99.90;;;;;;5093651;28;20032;-88
2022/06/22 09:15:23;;;;;;;19.92;14.85;;;20.40;99.90;;;;;;5083103;28;20056;-85
2022/06/22 09:18:11;;;;;;;18.75;16.75;;;20.30;99.90;;;;;;5098528;28;20056;-90
2022/06/22 09:21:08;;;;;;;20.65;16.60;;;20.30;99.90;;;;;;5098898;28;20036;-87
2022/06/22 09:24:08;;;;;;;17.60;15.57;;;20.40;99.90;;;;;;5083605;28;20104;-83
2022/06/22 09:27:29;;;;;;;18.88;16.27;;;20.40;99.90;;;;;;5097682;28;20052;-87
2022/06/22 09:30:18;;;;;;;22.92;17.30;;;20.50;99.90;;;;;;5094566;28;20135;-89
2022/06/22 09:33:11;;;;;;;20.60;16.60;;;20.50;99.90;;;;;;5077253;28;20133;-89
2022/06/22 09:36:10;;;;;;;17.73;15.95;;;20.40;99.90;;;;;;5076414;28;20053;-91
2022/06/22 09:39:09;;;;;;;21.92;18.00;;;20.30;99.90;;;;;;5071384;28;20040;-92
2022/06/22 09:41:59;;;;;;;22.25;17.02;;;20.20;99.90;;;;;;5094947;28;20070;-89
2022/06/22 09:45:24;;;;;;;19.90;17.67;;;20.20;99.90;;;;;;5085959;28;20037;-87
2022/06/22 09:48:36;;;;;;;18.42;15.20;;;20.30;99.90;;;;;;5086196;28;20044;-92
2022/06/22 09:51:57;;;;;;;15.32;13.73;;;20.30;99.90;;;;;;5065757;28;20483;-89
2022/06/22 09:58:24;;;;;;;19.23;13.85;;;19.90;99.90;;;;;;5070922;28;20044;-91
2022/06/22 10:01:30;;;;;;;15.55;13.40;;;19.80;99.90;;;;;;5076140;28;20190;-87
2022/06/22 10:04:21;;;;;;;14.77;13.00;;;19.80;99.90;;;;;;5075963;28;20088;-91
2022/06/22 10:07:08;;;;;;;16.58;13.85;;;19.80;99.90;;;;;;5074850;28;20059;-87
2022/06/22 10:10:02;;;;;;;16.92;14.02;;;19.70;99.90;;;;;;5075311;28;20055;-90
2022/06/22 10:13:15;;;;;;;20.45;14.70;;;19.70;99.90;;;;;;5072215;28;20060;-88
2022/06/22 10:16:13;;;;;;;17.13;13.15;;;19.60;99.90;;;;;;5070915;28;20052;-87
2022/06/22 10:19:28;;;;;;;18.60;14.38;;;19.60;99.90;;;;;;5074254;28;20118;-87
2022/06/22 10:22:48;;;;;;;21.67;13.82;;;19.70;99.90;;;;;;5068741;28;20056;-88
2022/06/22 10:26:00;;;;;;;18.15;14.60;;;19.70;99.90;;;;;;5073479;28;20052;-88
2022/06/22 10:29:32;;;;;;;23.00;14.82;;;19.80;99.90;;;;;;5066363;28;20052;-90
2022/06/22 10:32:38;;;;;;;16.92;13.27;;;19.80;99.90;;;;;;5072948;28;20489;-89
2022/06/22 10:35:46;;;;;;;14.68;9.05;;;19.70;99.90;;;;;;5060296;28;20342;-87
2022/06/22 10:38:42;;;;;;;14.05;10.00;;;19.50;99.90;;;;;;5072128;28;20067;-87
2022/06/22 10:45:35;;;;;;;20.88;13.38;;;19.50;99.90;;;;;;4991908;28;20046;-86
2022/06/22 10:48:50;;;;;;;27.63;14.20;;;19.50;99.90;;;;;;4976896;28;20799;-86
2022/06/22 10:52:02;;;;;;;20.35;14.32;;;19.50;99.90;;;;;;5072347;28;20048;-87
2022/06/22 10:54:51;;;;;;;18.83;16.20;;;19.50;99.90;;;;;;5071079;28;20040;-88
2022/06/22 10:58:06;;;;;;;26.38;16.52;;;19.50;99.90;;;;;;5065731;28;20036;-86
2022/06/22 11:01:02;;;;;;;21.25;18.40;;;19.50;99.90;;;;;;5073921;28;20049;-91
2022/06/22 11:04:07;;;;;;;21.92;18.10;;;19.60;99.90;;;;;;5053639;28;20048;-88
2022/06/22 11:07:16;;;;;;;25.75;19.98;;;19.60;99.90;;;;;;5091796;28;20048;-88
2022/06/22 11:10:17;;;;;;;59.38;42.75;;;19.70;99.90;;;;;;5080358;28;20036;-88
2022/06/22 11:13:29;;;;;;;37.10;27.80;;;19.70;99.90;;;;;;5096181;28;20056;-85
2022/06/22 11:16:19;;;;;;;20.85;17.20;;;19.70;99.90;;;;;;5086076;28;20037;-92
2022/06/22 11:19:35;;;;;;;22.80;16.67;;;19.70;99.90;;;;;;5082430;28;20098;-91
2022/06/22 11:22:38;;;;;;;18.15;14.07;;;19.70;99.90;;;;;;5080069;28;20034;-90
2022/06/22 11:33:14;;;;;;;22.20;11.05;;;19.80;99.90;;;;;;5072518;28;20452;-92
2022/06/22 11:36:07;;;;;;;14.63;9.75;;;19.70;99.90;;;;;;5058951;28;20044;-92
2022/06/22 11:39:15;;;;;;;15.45;9.95;;;19.60;99.90;;;;;;5057752;28;20048;-91
2022/06/22 11:42:15;;;;;;;16.60;10.93;;;19.50;99.90;;;;;;5057280;28;20389;-91
2022/06/22 11:49:15;;;;;;;15.93;12.45;;;19.30;99.90;;;;;;5070953;28;20056;-92
2022/06/22 11:52:30;;;;;;;18.13;7.38;;;19.30;99.90;;;;;;5070281;28;20492;-91
2022/06/22 11:55:30;;;;;;;16.27;6.50;;;19.30;99.90;;;;;;5073278;28;20330;-92
2022/06/22 11:58:26;;;;;;;19.80;6.80;;;19.20;99.90;;;;;;5073227;28;20092;-90
2022/06/22 12:01:35;;;;;;;18.63;6.78;;;19.10;99.90;;;;;;5094751;28;20049;-92
2022/06/22 12:04:48;;;;;;;17.13;6.28;;;19.00;99.90;;;;;;5077208;28;20465;-92
2022/06/22 12:07:47;;;;;;;16.33;6.20;;;18.90;99.90;;;;;;5075827;28;20059;-93
2022/06/22 12:10:54;;;;;;;20.25;6.38;;;18.90;99.90;;;;;;5077340;28;20385;-92
2022/06/22 12:15:04;;;;;;;16.90;5.28;;;18.90;99.90;;;;;;5071976;28;20043;-91
2022/06/22 12:17:06;;;;;;;20.40;5.63;;;18.90;99.90;;;;;;5071119;28;20029;-93
2022/06/22 12:20:31;;;;;;;19.80;5.97;;;19.10;99.90;;;;;;5072677;28;20045;-92
2022/06/22 12:23:56;;;;;;;18.45;5.20;;;19.30;99.90;;;;;;5074611;28;20059;-91
2022/06/22 12:27:00;;;;;;;16.45;4.90;;;19.30;99.90;;;;;;5078353;28;20055;-91
2022/06/22 12:30:02;;;;;;;24.13;5.22;;;19.30;99.90;;;;;;5064005;28;20032;-88
2022/06/22 12:33:47;;;;;;;21.52;5.85;;;19.30;99.90;;;;;;5063294;28;20466;-92
2022/06/22 12:36:44;;;;;;;15.20;5.32;;;19.50;99.90;;;;;;5071255;28;20510;-91
2022/06/22 12:39:42;;;;;;;20.58;5.88;;;19.70;99.90;;;;;;5087369;28;20037;-85
2022/06/22 12:42:53;;;;;;;20.58;5.68;;;20.00;99.90;;;;;;5096386;28;20056;-89
2022/06/22 12:45:52;;;;;;;18.13;6.00;;;20.10;99.90;;;;;;5083120;28;20041;-93
2022/06/22 12:48:56;;;;;;;14.65;5.45;;;20.00;99.90;;;;;;5080199;28;20108;-92
2022/06/22 12:52:03;;;;;;;21.00;5.75;;;20.10;99.90;;;;;;5061986;28;20044;-91
2022/06/22 12:55:01;;;;;;;19.20;4.75;;;20.20;99.90;;;;;;5076932;28;20056;-89
2022/06/22 12:58:05;;;;;;;16.20;5.35;;;20.20;99.90;;;;;;5075533;28;20096;-90
2022/06/22 13:00:59;;;;;;;21.20;5.60;;;20.60;99.90;;;;;;5079238;28;20069;-88
2022/06/22 13:03:58;;;;;;;18.43;5.87;;;20.70;99.90;;;;;;5087567;28;20115;-88
2022/06/22 13:06:54;;;;;;;18.77;5.18;;;20.70;99.90;;;;;;5079947;28;20294;-88
2022/06/22 13:09:46;;;;;;;22.75;5.68;;;20.70;99.90;;;;;;5081198;28;20059;-86
2022/06/22 13:12:51;;;;;;;23.15;5.43;;;20.90;99.90;;;;;;5077442;28;20055;-88
2022/06/22 13:15:44;;;;;;;17.60;5.22;;;21.20;99.90;;;;;;5070871;28;20040;-89
2022/06/22 13:18:42;;;;;;;16.23;4.72;;;21.30;99.90;;;;;;5076763;28;20041;-89
2022/06/22 13:21:37;;;;;;;19.65;5.30;;;21.20;99.90;;;;;;5082291;28;20059;-88
2022/06/22 13:24:33;;;;;;;16.90;4.72;;;21.20;99.90;;;;;;5076944;28;20051;-89
2022/06/22 13:27:48;;;;;;;19.52;4.00;;;21.30;99.90;;;;;;5079688;28;20047;-89
2022/06/22 13:31:02;;;;;;;18.27;4.65;;;21.60;99.90;;;;;;5058116;28;20098;-89
2022/06/22 13:34:22;;;;;;;17.02;4.75;;;21.90;99.90;;;;;;5067112;28;20045;-91
2022/06/22 13:37:58;;;;;;;20.60;5.47;;;22.10;99.90;;;;;;5066357;28;20037;-87
2022/06/22 13:40:57;;;;;;;17.17;4.38;;;22.40;99.90;;;;;;5077426;28;20113;-90
2022/06/22 13:44:09;;;;;;;19.50;5.45;;;22.40;99.90;;;;;;5069241;28;20063;-91
2022/06/22 13:47:13;;;;;;;19.48;5.00;;;22.60;99.90;;;;;;5076108;28;20041;-89
2022/06/22 13:50:33;;;;;;;18.95;4.88;;;23.10;99.90;;;;;;5060279;28;20044;-90
2022/06/22 13:53:35;;;;;;;18.13;5.05;;;23.30;99.90;;;;;;5071693;28;20064;-90
2022/06/22 13:56:36;;;;;;;18.92;5.70;;;23.40;99.90;;;;;;5061837;28;20182;-91
2022/06/22 14:00:01;;;;;;;17.58;5.28;;;23.50;99.90;;;;;;5069176;28;20055;-90
2022/06/22 14:03:08;;;;;;;22.20;4.95;;;23.40;99.90;;;;;;5084034;28;20044;-91
2022/06/22 14:06:49;;;;;;;;;;;;;;;;;;;;;
2022/06/22 14:10:21;;;;;;;21.88;5.43;;;23.00;99.90;;;;;;5078348;28;20100;-90
2022/06/22 14:13:51;;;;;;;20.80;5.15;;;22.70;99.90;;;;;;5077376;28;20051;-91
2022/06/22 14:16:56;;;;;;;21.73;4.93;;;22.60;99.90;;;;;;5068064;28;20045;-91
2022/06/22 14:20:16;;;;;;;23.98;5.43;;;22.50;99.90;;;;;;5081773;28;20040;-89
2022/06/22 14:23:06;;;;;;;16.40;4.32;;;22.60;99.90;;;;;;5084496;28;20045;-88
2022/06/22 14:26:22;;;;;;;16.30;4.80;;;22.80;99.90;;;;;;5099335;27;20088;-89
2022/06/22 14:29:25;;;;;;;16.63;4.65;;;22.90;99.90;;;;;;5094125;28;20040;-88
2022/06/22 14:32:27;;;;;;;20.50;4.82;;;22.90;99.90;;;;;;5091404;28;20060;-89
2022/06/22 14:35:26;;;;;;;16.05;4.88;;;22.90;99.90;;;;;;5086108;28;20077;-89
2022/06/22 14:38:25;;;;;;;20.65;5.45;;;22.60;99.90;;;;;;5070534;28;20438;-89
2022/06/22 14:41:37;;;;;;;18.35;5.10;;;22.40;99.90;;;;;;5063511;28;20041;-92
2022/06/22 14:44:45;;;;;;;18.58;4.60;;;22.30;99.90;;;;;;5067899;28;20052;-91
2022/06/22 14:47:59;;;;;;;22.67;5.25;;;22.10;99.90;;;;;;5076205;28;20053;-90
2022/06/22 14:50:51;;;;;;;17.10;4.97;;;22.20;99.90;;;;;;5067530;28;20044;-91
2022/06/22 14:54:05;;;;;;;;;;;;;;;;;;;;;
2022/06/22 14:57:34;;;;;;;16.50;5.10;;;22.00;99.90;;;;;;5074617;28;20109;-91
2022/06/22 15:01:08;;;;;;;19.10;5.20;;;22.00;99.90;;;;;;5014233;28;20087;-92
2022/06/22 15:04:44;;;;;;;23.58;6.35;;;21.90;99.90;;;;;;5075499;28;20052;-89
2022/06/22 15:07:54;;;;;;;;;;;;;;;;;;;;;
2022/06/22 15:14:52;;;;;;;18.67;5.40;;;22.60;99.90;;;;;;4992836;28;20046;-92
2022/06/22 15:18:34;;;;;;;;;;;;;;;;;;;;;
2022/06/22 15:21:54;;;;;;;19.98;5.07;;;23.00;99.90;;;;;;4994079;28;20081;-91
2022/06/22 15:25:08;;;;;;;18.10;5.30;;;22.80;99.90;;;;;;4992294;28;20141;-91
2022/06/22 15:28:10;;;;;;;12.73;5.32;;;22.70;99.90;;;;;;4996665;28;20050;-92
2022/06/22 15:31:43;;;;;;;17.83;5.40;;;22.60;99.90;;;;;;4997979;28;20043;-91
2022/06/22 15:35:22;;;;;;;17.95;5.60;;;22.40;99.90;;;;;;4993046;28;20062;-90
2022/06/22 15:38:43;;;;;;;17.67;5.35;;;22.40;99.90;;;;;;5062361;28;20060;-91
2022/06/22 15:41:54;;;;;;;21.00;6.40;;;22.30;99.90;;;;;;5053645;28;20044;-92
2022/06/22 15:44:47;;;;;;;13.05;4.95;;;22.40;99.90;;;;;;5067579;28;20062;-91
2022/06/22 15:47:50;;;;;;;17.35;5.15;;;22.60;99.90;;;;;;5063981;28;20044;-92
2022/06/22 15:50:45;;;;;;;14.90;5.82;;;22.60;99.90;;;;;;5068459;28;20072;-89
2022/06/22 15:53:42;;;;;;;13.05;4.53;;;22.80;99.90;;;;;;5073302;28;20044;-88
2022/06/22 15:56:40;;;;;;;15.95;4.80;;;22.90;99.90;;;;;;5059373;28;20044;-88
2022/06/22 15:59:45;;;;;;;15.25;5.57;;;22.90;99.90;;;;;;5058759;28;20148;-87
2022/06/22 16:02:38;;;;;;;11.95;4.90;;;23.00;99.90;;;;;;5067623;28;20045;-88
2022/06/22 16:05:42;;;;;;;16.50;4.97;;;23.00;99.90;;;;;;5069438;28;20098;-88
2022/06/22 16:08:54;;;;;;;15.13;4.72;;;22.80;99.90;;;;;;5059047;28;20120;-88
2022/06/22 16:15:16;;;;;;;13.20;3.80;;;22.60;99.90;;;;;;5077878;28;20450;-89
2022/06/22 16:18:08;;;;;;;20.13;4.85;;;22.90;99.90;;;;;;5073205;28;20086;-88
2022/06/22 16:21:05;;;;;;;17.65;4.68;;;23.30;99.90;;;;;;5065766;28;20059;-89
2022/06/22 16:24:06;;;;;;;16.33;3.97;;;23.40;99.90;;;;;;5067482;28;20045;-89
2022/06/22 16:27:24;;;;;;;15.80;4.47;;;23.40;99.90;;;;;;5070620;28;20064;-88
2022/06/22 16:30:12;;;;;;;17.50;4.40;;;23.00;99.90;;;;;;5069225;28;20059;-89
2022/06/22 16:33:02;;;;;;;16.80;4.85;;;22.40;99.90;;;;;;5066912;28;20041;-87
2022/06/22 16:35:54;;;;;;;16.02;4.97;;;22.10;99.90;;;;;;5067215;28;20043;-89
2022/06/22 16:39:06;;;;;;;17.60;4.82;;;22.10;99.90;;;;;;5071595;28;20185;-88